Jackson, Mississippi
Current Conditions -  °F | °C
As of 1:53 AM on Sunday 23 Nov 2014 (Local Time) from KHKS Reporting Station
Overcast Overcast  
Wind Chill: 61°   Ceiling: 900
Heat Index: 61°   Visibility: 10mi
Dew Point: 57°   Wind: 15mph
Humidity: 87%   Direction: 130°SE
Pressure: 29.85"   Gusts: 21mph
Location:  32.3°N, 90.18°W
Report Text: KHKS 230753Z AUTO 13013G18KT 10SM OVC009 16/14 A2985 RMK AO2 CIG 007V012 PRESFR SLP099 T01610139
Loading
Personal Weather Stations






























Interactive Weather Map New forecast layout! Learn more

10-Day Weather Forecast

Advertisements
Track Severe Weather on mobile